sensor_id;sensor_type;location;lat;lon;timestamp;temperature;humidity
19085;DHT22;9675;51.538;6.728;2022-10-28T00:00:09;20.10;99.90
19085;DHT22;9675;51.538;6.728;2022-10-28T00:02:36;20.10;99.90
19085;DHT22;9675;51.538;6.728;2022-10-28T00:05:07;20.10;99.90
19085;DHT22;9675;51.538;6.728;2022-10-28T00:07:34;20.10;99.90
19085;DHT22;9675;51.538;6.728;2022-10-28T00:10:02;20.10;99.90
19085;DHT22;9675;51.538;6.728;2022-10-28T00:12:29;20.10;99.90
19085;DHT22;9675;51.538;6.728;2022-10-28T00:14:56;20.10;99.90
19085;DHT22;9675;51.538;6.728;2022-10-28T00:17:23;20.00;99.90
19085;DHT22;9675;51.538;6.728;2022-10-28T00:19:50;20.10;99.90
19085;DHT22;9675;51.538;6.728;2022-10-28T00:22:18;20.10;99.90
19085;DHT22;9675;51.538;6.728;2022-10-28T00:24:45;20.10;99.90
19085;DHT22;9675;51.538;6.728;2022-10-28T00:27:12;20.10;99.90
19085;DHT22;9675;51.538;6.728;2022-10-28T00:29:39;20.10;99.90
19085;DHT22;9675;51.538;6.728;2022-10-28T00:32:06;20.10;99.90
19085;DHT22;9675;51.538;6.728;2022-10-28T00:34:33;20.00;99.90
19085;DHT22;9675;51.538;6.728;2022-10-28T00:37:00;20.00;99.90
19085;DHT22;9675;51.538;6.728;2022-10-28T00:39:29;20.10;99.90
19085;DHT22;9675;51.538;6.728;2022-10-28T00:41:57;20.00;99.90
19085;DHT22;9675;51.538;6.728;2022-10-28T00:44:52;20.10;99.90
19085;DHT22;9675;51.538;6.728;2022-10-28T00:47:29;20.00;99.90
19085;DHT22;9675;51.538;6.728;2022-10-28T00:50:11;20.00;99.90
19085;DHT22;9675;51.538;6.728;2022-10-28T00:52:50;20.00;99.90
19085;DHT22;9675;51.538;6.728;2022-10-28T00:55:23;20.00;99.90
19085;DHT22;9675;51.538;6.728;2022-10-28T00:57:53;20.00;99.90
19085;DHT22;9675;51.538;6.728;2022-10-28T01:00:22;20.00;99.90
19085;DHT22;9675;51.538;6.728;2022-10-28T01:02:50;20.00;99.90
19085;DHT22;9675;51.538;6.728;2022-10-28T01:05:20;20.00;99.90
19085;DHT22;9675;51.538;6.728;2022-10-28T01:07:49;20.00;99.90
19085;DHT22;9675;51.538;6.728;2022-10-28T01:10:19;20.00;99.90
19085;DHT22;9675;51.538;6.728;2022-10-28T01:13:01;20.00;99.90
19085;DHT22;9675;51.538;6.728;2022-10-28T01:15:42;20.00;99.90
19085;DHT22;9675;51.538;6.728;2022-10-28T01:18:23;20.00;99.90
19085;DHT22;9675;51.538;6.728;2022-10-28T01:24:34;20.00;99.90
19085;DHT22;9675;51.538;6.728;2022-10-28T01:27:36;20.00;99.90
19085;DHT22;9675;51.538;6.728;2022-10-28T01:30:29;20.00;99.90
19085;DHT22;9675;51.538;6.728;2022-10-28T01:33:16;20.00;99.90
19085;DHT22;9675;51.538;6.728;2022-10-28T01:35:53;20.00;99.90
19085;DHT22;9675;51.538;6.728;2022-10-28T01:38:29;20.00;99.90
19085;DHT22;9675;51.538;6.728;2022-10-28T01:41:06;20.00;99.90
19085;DHT22;9675;51.538;6.728;2022-10-28T01:43:44;20.00;99.90
19085;DHT22;9675;51.538;6.728;2022-10-28T01:46:18;20.00;99.90
19085;DHT22;9675;51.538;6.728;2022-10-28T01:48:55;20.00;99.90
19085;DHT22;9675;51.538;6.728;2022-10-28T01:51:28;20.00;99.90
19085;DHT22;9675;51.538;6.728;2022-10-28T01:54:01;20.00;99.90
19085;DHT22;9675;51.538;6.728;2022-10-28T01:56:34;20.00;99.90
19085;DHT22;9675;51.538;6.728;2022-10-28T01:59:07;20.00;99.90
19085;DHT22;9675;51.538;6.728;2022-10-28T02:01:38;20.00;99.90
19085;DHT22;9675;51.538;6.728;2022-10-28T02:04:07;20.00;99.90
19085;DHT22;9675;51.538;6.728;2022-10-28T02:06:34;20.00;99.90
19085;DHT22;9675;51.538;6.728;2022-10-28T02:09:14;20.00;99.90
19085;DHT22;9675;51.538;6.728;2022-10-28T02:12:13;20.00;99.90
19085;DHT22;9675;51.538;6.728;2022-10-28T02:15:01;20.00;99.90
19085;DHT22;9675;51.538;6.728;2022-10-28T02:17:47;20.00;99.90
19085;DHT22;9675;51.538;6.728;2022-10-28T02:20:31;19.90;99.90
19085;DHT22;9675;51.538;6.728;2022-10-28T02:23:14;20.00;99.90
19085;DHT22;9675;51.538;6.728;2022-10-28T02:25:53;19.90;99.90
19085;DHT22;9675;51.538;6.728;2022-10-28T02:28:34;19.90;99.90
19085;DHT22;9675;51.538;6.728;2022-10-28T02:31:17;19.90;99.90
19085;DHT22;9675;51.538;6.728;2022-10-28T02:33:52;19.90;99.90
19085;DHT22;9675;51.538;6.728;2022-10-28T02:36:25;19.90;99.90
19085;DHT22;9675;51.538;6.728;2022-10-28T02:38:56;19.90;99.90
19085;DHT22;9675;51.538;6.728;2022-10-28T02:41:26;19.90;99.90
19085;DHT22;9675;51.538;6.728;2022-10-28T02:44:01;19.90;99.90
19085;DHT22;9675;51.538;6.728;2022-10-28T02:46:36;19.90;99.90
19085;DHT22;9675;51.538;6.728;2022-10-28T02:49:09;19.90;99.90
19085;DHT22;9675;51.538;6.728;2022-10-28T02:51:41;19.90;99.90
19085;DHT22;9675;51.538;6.728;2022-10-28T02:54:13;19.80;99.90
19085;DHT22;9675;51.538;6.728;2022-10-28T02:56:47;19.80;99.90
19085;DHT22;9675;51.538;6.728;2022-10-28T02:59:18;19.80;99.90
19085;DHT22;9675;51.538;6.728;2022-10-28T03:01:45;19.80;99.90
19085;DHT22;9675;51.538;6.728;2022-10-28T03:04:12;19.80;99.90
19085;DHT22;9675;51.538;6.728;2022-10-28T03:06:41;19.80;99.90
19085;DHT22;9675;51.538;6.728;2022-10-28T03:09:08;19.80;99.90
19085;DHT22;9675;51.538;6.728;2022-10-28T03:11:35;19.80;99.90
19085;DHT22;9675;51.538;6.728;2022-10-28T03:14:02;19.70;99.90
19085;DHT22;9675;51.538;6.728;2022-10-28T03:16:29;19.70;99.90
19085;DHT22;9675;51.538;6.728;2022-10-28T03:18:56;19.70;99.90
19085;DHT22;9675;51.538;6.728;2022-10-28T03:21:23;19.70;99.90
19085;DHT22;9675;51.538;6.728;2022-10-28T03:23:52;19.70;99.90
19085;DHT22;9675;51.538;6.728;2022-10-28T03:26:19;19.70;99.90
19085;DHT22;9675;51.538;6.728;2022-10-28T03:28:46;19.70;99.90
19085;DHT22;9675;51.538;6.728;2022-10-28T03:31:13;19.70;99.90
19085;DHT22;9675;51.538;6.728;2022-10-28T03:33:41;19.70;99.90
19085;DHT22;9675;51.538;6.728;2022-10-28T03:36:08;19.70;99.90
19085;DHT22;9675;51.538;6.728;2022-10-28T03:38:35;19.60;99.90
19085;DHT22;9675;51.538;6.728;2022-10-28T03:41:04;19.60;99.90
19085;DHT22;9675;51.538;6.728;2022-10-28T03:43:31;19.60;99.90
19085;DHT22;9675;51.538;6.728;2022-10-28T03:45:58;19.60;99.90
19085;DHT22;9675;51.538;6.728;2022-10-28T03:48:25;19.60;99.90
19085;DHT22;9675;51.538;6.728;2022-10-28T03:50:52;19.60;99.90
19085;DHT22;9675;51.538;6.728;2022-10-28T03:53:19;19.60;99.90
19085;DHT22;9675;51.538;6.728;2022-10-28T03:55:51;19.50;99.90
19085;DHT22;9675;51.538;6.728;2022-10-28T03:58:20;19.50;99.90
19085;DHT22;9675;51.538;6.728;2022-10-28T04:00:47;19.50;99.90
19085;DHT22;9675;51.538;6.728;2022-10-28T04:03:14;19.50;99.90
19085;DHT22;9675;51.538;6.728;2022-10-28T04:05:42;19.50;99.90
19085;DHT22;9675;51.538;6.728;2022-10-28T04:08:09;19.50;99.90
19085;DHT22;9675;51.538;6.728;2022-10-28T04:10:37;19.40;99.90
19085;DHT22;9675;51.538;6.728;2022-10-28T04:13:05;19.40;99.90
19085;DHT22;9675;51.538;6.728;2022-10-28T04:15:34;19.40;99.90
19085;DHT22;9675;51.538;6.728;2022-10-28T04:18:01;19.40;99.90
19085;DHT22;9675;51.538;6.728;2022-10-28T04:20:29;19.40;99.90
19085;DHT22;9675;51.538;6.728;2022-10-28T04:22:56;19.40;99.90
19085;DHT22;9675;51.538;6.728;2022-10-28T04:25:25;19.40;99.90
19085;DHT22;9675;51.538;6.728;2022-10-28T04:27:53;19.40;99.90
19085;DHT22;9675;51.538;6.728;2022-10-28T04:30:20;19.40;99.90
19085;DHT22;9675;51.538;6.728;2022-10-28T04:32:49;19.40;99.90
19085;DHT22;9675;51.538;6.728;2022-10-28T04:35:17;19.40;99.90
19085;DHT22;9675;51.538;6.728;2022-10-28T04:37:45;19.40;99.90
19085;DHT22;9675;51.538;6.728;2022-10-28T04:40:12;19.40;99.90
19085;DHT22;9675;51.538;6.728;2022-10-28T04:42:40;19.30;99.90
19085;DHT22;9675;51.538;6.728;2022-10-28T04:45:07;19.40;99.90
19085;DHT22;9675;51.538;6.728;2022-10-28T04:47:35;19.40;99.90
19085;DHT22;9675;51.538;6.728;2022-10-28T04:50:04;19.30;99.90
19085;DHT22;9675;51.538;6.728;2022-10-28T04:52:31;19.30;99.90
19085;DHT22;9675;51.538;6.728;2022-10-28T04:54:58;19.30;99.90
19085;DHT22;9675;51.538;6.728;2022-10-28T04:57:25;19.30;99.90
19085;DHT22;9675;51.538;6.728;2022-10-28T04:59:52;19.30;99.90
19085;DHT22;9675;51.538;6.728;2022-10-28T05:02:21;19.40;99.90
19085;DHT22;9675;51.538;6.728;2022-10-28T05:04:48;19.30;99.90
19085;DHT22;9675;51.538;6.728;2022-10-28T05:07:17;19.30;99.90
19085;DHT22;9675;51.538;6.728;2022-10-28T05:09:44;19.30;99.90
19085;DHT22;9675;51.538;6.728;2022-10-28T05:12:11;19.30;99.90
19085;DHT22;9675;51.538;6.728;2022-10-28T05:14:38;19.30;99.90
19085;DHT22;9675;51.538;6.728;2022-10-28T05:17:05;19.30;99.90
19085;DHT22;9675;51.538;6.728;2022-10-28T05:19:33;19.30;99.90
19085;DHT22;9675;51.538;6.728;2022-10-28T05:22:00;19.30;99.90
19085;DHT22;9675;51.538;6.728;2022-10-28T05:24:29;19.30;99.90
19085;DHT22;9675;51.538;6.728;2022-10-28T05:26:58;19.30;99.90
19085;DHT22;9675;51.538;6.728;2022-10-28T05:29:25;19.30;99.90
19085;DHT22;9675;51.538;6.728;2022-10-28T05:31:52;19.30;99.90
19085;DHT22;9675;51.538;6.728;2022-10-28T05:34:19;19.30;99.90
19085;DHT22;9675;51.538;6.728;2022-10-28T05:36:46;19.30;99.90
19085;DHT22;9675;51.538;6.728;2022-10-28T05:39:14;19.30;99.90
19085;DHT22;9675;51.538;6.728;2022-10-28T05:41:43;19.30;99.90
19085;DHT22;9675;51.538;6.728;2022-10-28T05:44:10;19.30;99.90
19085;DHT22;9675;51.538;6.728;2022-10-28T05:46:37;19.20;99.90
19085;DHT22;9675;51.538;6.728;2022-10-28T05:49:04;19.20;99.90
19085;DHT22;9675;51.538;6.728;2022-10-28T05:51:31;19.20;99.90
19085;DHT22;9675;51.538;6.728;2022-10-28T05:53:58;19.20;99.90
19085;DHT22;9675;51.538;6.728;2022-10-28T05:56:25;19.20;99.90
19085;DHT22;9675;51.538;6.728;2022-10-28T05:58:53;19.20;99.90
19085;DHT22;9675;51.538;6.728;2022-10-28T06:01:20;19.20;99.90
19085;DHT22;9675;51.538;6.728;2022-10-28T06:03:47;19.20;99.90
19085;DHT22;9675;51.538;6.728;2022-10-28T06:06:14;19.20;99.90
19085;DHT22;9675;51.538;6.728;2022-10-28T06:08:41;19.20;99.90
19085;DHT22;9675;51.538;6.728;2022-10-28T06:11:08;19.20;99.90
19085;DHT22;9675;51.538;6.728;2022-10-28T06:13:36;19.20;99.90
19085;DHT22;9675;51.538;6.728;2022-10-28T06:16:05;19.20;99.90
19085;DHT22;9675;51.538;6.728;2022-10-28T06:18:32;19.20;99.90
19085;DHT22;9675;51.538;6.728;2022-10-28T06:20:59;19.20;99.90
19085;DHT22;9675;51.538;6.728;2022-10-28T06:23:26;19.10;99.90
19085;DHT22;9675;51.538;6.728;2022-10-28T06:25:56;19.20;99.90
19085;DHT22;9675;51.538;6.728;2022-10-28T06:28:23;19.20;99.90
19085;DHT22;9675;51.538;6.728;2022-10-28T06:30:50;19.20;99.90
19085;DHT22;9675;51.538;6.728;2022-10-28T06:33:19;19.20;99.90
19085;DHT22;9675;51.538;6.728;2022-10-28T06:35:46;19.20;99.90
19085;DHT22;9675;51.538;6.728;2022-10-28T06:38:13;19.20;99.90
19085;DHT22;9675;51.538;6.728;2022-10-28T06:40:40;19.10;99.90
19085;DHT22;9675;51.538;6.728;2022-10-28T06:43:08;19.10;99.90
19085;DHT22;9675;51.538;6.728;2022-10-28T06:45:37;19.20;99.90
19085;DHT22;9675;51.538;6.728;2022-10-28T06:48:05;19.10;99.90
19085;DHT22;9675;51.538;6.728;2022-10-28T06:50:34;19.20;99.90
19085;DHT22;9675;51.538;6.728;2022-10-28T06:53:03;19.20;99.90
19085;DHT22;9675;51.538;6.728;2022-10-28T06:55:30;19.10;99.90
19085;DHT22;9675;51.538;6.728;2022-10-28T06:57:58;19.10;99.90
19085;DHT22;9675;51.538;6.728;2022-10-28T07:00:26;19.10;99.90
19085;DHT22;9675;51.538;6.728;2022-10-28T07:02:54;19.10;99.90
19085;DHT22;9675;51.538;6.728;2022-10-28T07:05:23;19.10;99.90
19085;DHT22;9675;51.538;6.728;2022-10-28T07:07:54;19.10;99.90
19085;DHT22;9675;51.538;6.728;2022-10-28T07:10:21;19.10;99.90
19085;DHT22;9675;51.538;6.728;2022-10-28T07:12:48;19.20;99.90
19085;DHT22;9675;51.538;6.728;2022-10-28T07:15:15;19.20;99.90
19085;DHT22;9675;51.538;6.728;2022-10-28T07:17:42;19.20;99.90
19085;DHT22;9675;51.538;6.728;2022-10-28T07:20:10;19.20;99.90
19085;DHT22;9675;51.538;6.728;2022-10-28T07:22:37;19.20;99.90
19085;DHT22;9675;51.538;6.728;2022-10-28T07:25:06;19.20;99.90
19085;DHT22;9675;51.538;6.728;2022-10-28T07:27:34;19.20;99.90
19085;DHT22;9675;51.538;6.728;2022-10-28T07:30:01;19.20;99.90
19085;DHT22;9675;51.538;6.728;2022-10-28T07:32:30;19.20;99.90
19085;DHT22;9675;51.538;6.728;2022-10-28T07:34:58;19.20;99.90
19085;DHT22;9675;51.538;6.728;2022-10-28T07:37:25;19.20;99.90
19085;DHT22;9675;51.538;6.728;2022-10-28T07:39:52;19.20;99.90
19085;DHT22;9675;51.538;6.728;2022-10-28T07:42:20;19.20;99.90
19085;DHT22;9675;51.538;6.728;2022-10-28T07:44:47;19.20;99.90
19085;DHT22;9675;51.538;6.728;2022-10-28T07:47:14;19.20;99.90
19085;DHT22;9675;51.538;6.728;2022-10-28T07:49:42;19.20;99.90
19085;DHT22;9675;51.538;6.728;2022-10-28T07:52:09;19.30;99.90
19085;DHT22;9675;51.538;6.728;2022-10-28T07:54:36;19.30;99.90
19085;DHT22;9675;51.538;6.728;2022-10-28T07:57:03;19.30;99.90
19085;DHT22;9675;51.538;6.728;2022-10-28T07:59:32;19.30;99.90
19085;DHT22;9675;51.538;6.728;2022-10-28T08:01:59;19.30;99.90
19085;DHT22;9675;51.538;6.728;2022-10-28T08:04:28;19.30;99.90
19085;DHT22;9675;51.538;6.728;2022-10-28T08:06:56;19.30;99.90
19085;DHT22;9675;51.538;6.728;2022-10-28T08:09:23;19.30;99.90
19085;DHT22;9675;51.538;6.728;2022-10-28T08:11:54;19.30;99.90
19085;DHT22;9675;51.538;6.728;2022-10-28T08:14:21;19.30;99.90
19085;DHT22;9675;51.538;6.728;2022-10-28T08:16:50;19.30;99.90
19085;DHT22;9675;51.538;6.728;2022-10-28T08:19:17;19.30;99.90
19085;DHT22;9675;51.538;6.728;2022-10-28T08:21:44;19.30;99.90
19085;DHT22;9675;51.538;6.728;2022-10-28T08:24:12;19.30;99.90
19085;DHT22;9675;51.538;6.728;2022-10-28T08:26:39;19.30;99.90
19085;DHT22;9675;51.538;6.728;2022-10-28T08:29:06;19.40;99.90
19085;DHT22;9675;51.538;6.728;2022-10-28T08:31:36;19.40;99.90
19085;DHT22;9675;51.538;6.728;2022-10-28T08:34:05;19.40;99.90
19085;DHT22;9675;51.538;6.728;2022-10-28T08:36:33;19.40;99.90
19085;DHT22;9675;51.538;6.728;2022-10-28T08:39:00;19.40;99.90
19085;DHT22;9675;51.538;6.728;2022-10-28T08:41:35;19.50;99.90
19085;DHT22;9675;51.538;6.728;2022-10-28T08:44:36;19.50;99.90
19085;DHT22;9675;51.538;6.728;2022-10-28T08:47:24;19.50;99.90
19085;DHT22;9675;51.538;6.728;2022-10-28T08:50:12;19.60;99.90
19085;DHT22;9675;51.538;6.728;2022-10-28T08:52:46;19.60;99.90
19085;DHT22;9675;51.538;6.728;2022-10-28T08:55:20;19.60;99.90
19085;DHT22;9675;51.538;6.728;2022-10-28T08:57:53;19.60;99.90
19085;DHT22;9675;51.538;6.728;2022-10-28T09:00:25;19.60;99.90
19085;DHT22;9675;51.538;6.728;2022-10-28T09:03:04;19.70;99.90
19085;DHT22;9675;51.538;6.728;2022-10-28T09:05:43;19.70;99.90
19085;DHT22;9675;51.538;6.728;2022-10-28T09:08:19;19.80;99.90
19085;DHT22;9675;51.538;6.728;2022-10-28T09:11:01;19.90;99.90
19085;DHT22;9675;51.538;6.728;2022-10-28T09:13:43;19.90;99.90
19085;DHT22;9675;51.538;6.728;2022-10-28T09:16:27;20.00;99.90
19085;DHT22;9675;51.538;6.728;2022-10-28T09:19:14;20.10;99.90
19085;DHT22;9675;51.538;6.728;2022-10-28T09:21:59;20.10;99.90
19085;DHT22;9675;51.538;6.728;2022-10-28T09:24:48;20.20;99.90
19085;DHT22;9675;51.538;6.728;2022-10-28T09:27:29;20.30;99.90
19085;DHT22;9675;51.538;6.728;2022-10-28T09:30:20;20.40;99.90
19085;DHT22;9675;51.538;6.728;2022-10-28T09:33:04;20.40;99.90
19085;DHT22;9675;51.538;6.728;2022-10-28T09:35:43;20.50;99.90
19085;DHT22;9675;51.538;6.728;2022-10-28T09:38:26;20.60;99.90
19085;DHT22;9675;51.538;6.728;2022-10-28T09:41:00;20.70;99.90
19085;DHT22;9675;51.538;6.728;2022-10-28T09:43:32;20.80;99.90
19085;DHT22;9675;51.538;6.728;2022-10-28T09:46:05;20.80;99.90
19085;DHT22;9675;51.538;6.728;2022-10-28T09:48:37;20.90;99.90
19085;DHT22;9675;51.538;6.728;2022-10-28T09:51:20;20.90;99.90
19085;DHT22;9675;51.538;6.728;2022-10-28T09:53:55;21.00;99.90
19085;DHT22;9675;51.538;6.728;2022-10-28T09:56:24;21.00;99.90
19085;DHT22;9675;51.538;6.728;2022-10-28T09:58:53;21.10;99.90
19085;DHT22;9675;51.538;6.728;2022-10-28T10:01:23;21.20;99.90
19085;DHT22;9675;51.538;6.728;2022-10-28T10:03:51;21.20;99.90
19085;DHT22;9675;51.538;6.728;2022-10-28T10:06:21;21.30;99.90
19085;DHT22;9675;51.538;6.728;2022-10-28T10:08:54;21.40;99.90
19085;DHT22;9675;51.538;6.728;2022-10-28T10:11:28;21.40;99.90
19085;DHT22;9675;51.538;6.728;2022-10-28T10:14:03;21.50;99.90
19085;DHT22;9675;51.538;6.728;2022-10-28T10:16:39;21.60;99.90
19085;DHT22;9675;51.538;6.728;2022-10-28T10:19:11;21.60;99.90
19085;DHT22;9675;51.538;6.728;2022-10-28T10:21:41;21.70;99.90
19085;DHT22;9675;51.538;6.728;2022-10-28T10:24:26;21.70;99.90
19085;DHT22;9675;51.538;6.728;2022-10-28T10:26:56;21.80;99.90
19085;DHT22;9675;51.538;6.728;2022-10-28T10:29:27;21.80;99.90
19085;DHT22;9675;51.538;6.728;2022-10-28T10:32:12;21.90;99.90
19085;DHT22;9675;51.538;6.728;2022-10-28T10:34:44;22.00;99.90
19085;DHT22;9675;51.538;6.728;2022-10-28T10:37:19;22.00;99.90
19085;DHT22;9675;51.538;6.728;2022-10-28T10:40:04;22.10;99.90
19085;DHT22;9675;51.538;6.728;2022-10-28T10:42:42;22.10;99.90
19085;DHT22;9675;51.538;6.728;2022-10-28T10:45:19;22.20;99.90
19085;DHT22;9675;51.538;6.728;2022-10-28T10:47:48;22.20;99.90
19085;DHT22;9675;51.538;6.728;2022-10-28T10:50:31;22.30;99.90
19085;DHT22;9675;51.538;6.728;2022-10-28T10:53:00;22.40;99.90
19085;DHT22;9675;51.538;6.728;2022-10-28T10:55:33;22.40;99.90
19085;DHT22;9675;51.538;6.728;2022-10-28T10:58:03;22.50;99.90
19085;DHT22;9675;51.538;6.728;2022-10-28T11:00:35;22.50;99.90
19085;DHT22;9675;51.538;6.728;2022-10-28T11:03:05;22.60;99.90
19085;DHT22;9675;51.538;6.728;2022-10-28T11:05:47;22.60;99.90
19085;DHT22;9675;51.538;6.728;2022-10-28T11:08:27;22.70;99.90
19085;DHT22;9675;51.538;6.728;2022-10-28T11:11:10;22.70;99.90
19085;DHT22;9675;51.538;6.728;2022-10-28T11:13:40;22.80;99.90
19085;DHT22;9675;51.538;6.728;2022-10-28T11:16:18;22.90;99.90
19085;DHT22;9675;51.538;6.728;2022-10-28T11:18:48;22.90;99.90
19085;DHT22;9675;51.538;6.728;2022-10-28T11:21:37;22.90;99.90
19085;DHT22;9675;51.538;6.728;2022-10-28T11:24:26;23.00;99.90
19085;DHT22;9675;51.538;6.728;2022-10-28T11:27:14;23.00;99.90
19085;DHT22;9675;51.538;6.728;2022-10-28T11:29:54;23.10;99.90
19085;DHT22;9675;51.538;6.728;2022-10-28T11:32:35;23.10;99.90
19085;DHT22;9675;51.538;6.728;2022-10-28T11:35:33;23.20;99.90
19085;DHT22;9675;51.538;6.728;2022-10-28T11:41:52;23.30;99.90
19085;DHT22;9675;51.538;6.728;2022-10-28T11:44:36;23.30;99.90
19085;DHT22;9675;51.538;6.728;2022-10-28T11:50:28;23.40;99.90
19085;DHT22;9675;51.538;6.728;2022-10-28T11:53:33;23.50;99.90
19085;DHT22;9675;51.538;6.728;2022-10-28T11:56:18;23.50;99.90
19085;DHT22;9675;51.538;6.728;2022-10-28T11:59:01;23.60;99.90
19085;DHT22;9675;51.538;6.728;2022-10-28T12:01:54;23.70;99.90
19085;DHT22;9675;51.538;6.728;2022-10-28T12:04:41;23.70;99.90
19085;DHT22;9675;51.538;6.728;2022-10-28T12:07:32;23.80;99.90
19085;DHT22;9675;51.538;6.728;2022-10-28T12:10:17;23.80;99.90
19085;DHT22;9675;51.538;6.728;2022-10-28T12:12:57;23.90;99.90
19085;DHT22;9675;51.538;6.728;2022-10-28T12:15:35;23.90;99.90
19085;DHT22;9675;51.538;6.728;2022-10-28T12:18:14;24.00;99.90
19085;DHT22;9675;51.538;6.728;2022-10-28T12:20:58;24.10;99.90
19085;DHT22;9675;51.538;6.728;2022-10-28T12:23:32;24.10;99.90
19085;DHT22;9675;51.538;6.728;2022-10-28T12:26:05;24.10;99.90
19085;DHT22;9675;51.538;6.728;2022-10-28T12:28:41;24.20;99.90
19085;DHT22;9675;51.538;6.728;2022-10-28T12:31:17;24.20;99.90
19085;DHT22;9675;51.538;6.728;2022-10-28T12:33:52;24.30;99.90
19085;DHT22;9675;51.538;6.728;2022-10-28T12:36:28;24.30;99.90
19085;DHT22;9675;51.538;6.728;2022-10-28T12:39:02;24.40;99.90
19085;DHT22;9675;51.538;6.728;2022-10-28T12:41:46;24.40;99.90
19085;DHT22;9675;51.538;6.728;2022-10-28T12:44:22;24.50;99.90
19085;DHT22;9675;51.538;6.728;2022-10-28T12:46:59;24.50;99.90
19085;DHT22;9675;51.538;6.728;2022-10-28T12:49:46;24.50;99.90
19085;DHT22;9675;51.538;6.728;2022-10-28T12:52:29;24.60;99.90
19085;DHT22;9675;51.538;6.728;2022-10-28T12:55:13;24.60;99.90
19085;DHT22;9675;51.538;6.728;2022-10-28T12:57:48;24.60;99.90
19085;DHT22;9675;51.538;6.728;2022-10-28T13:00:22;24.60;99.90
19085;DHT22;9675;51.538;6.728;2022-10-28T13:02:58;24.60;99.90
19085;DHT22;9675;51.538;6.728;2022-10-28T13:05:35;24.60;99.90
19085;DHT22;9675;51.538;6.728;2022-10-28T13:12:14;24.70;99.90
19085;DHT22;9675;51.538;6.728;2022-10-28T13:15:06;24.80;99.90
19085;DHT22;9675;51.538;6.728;2022-10-28T13:18:00;24.70;99.90
19085;DHT22;9675;51.538;6.728;2022-10-28T13:20:49;24.70;99.90
19085;DHT22;9675;51.538;6.728;2022-10-28T13:23:29;24.70;99.90
19085;DHT22;9675;51.538;6.728;2022-10-28T13:26:14;24.80;99.90
19085;DHT22;9675;51.538;6.728;2022-10-28T13:28:49;24.80;99.90
19085;DHT22;9675;51.538;6.728;2022-10-28T13:31:18;24.80;99.90
19085;DHT22;9675;51.538;6.728;2022-10-28T13:33:49;24.80;99.90
19085;DHT22;9675;51.538;6.728;2022-10-28T13:36:24;24.80;99.90
19085;DHT22;9675;51.538;6.728;2022-10-28T13:38:55;24.80;99.90
19085;DHT22;9675;51.538;6.728;2022-10-28T13:41:31;24.80;99.90
19085;DHT22;9675;51.538;6.728;2022-10-28T13:44:22;24.80;99.90
19085;DHT22;9675;51.538;6.728;2022-10-28T13:53:50;24.80;99.90
19085;DHT22;9675;51.538;6.728;2022-10-28T13:56:35;24.90;99.90
19085;DHT22;9675;51.538;6.728;2022-10-28T13:59:23;24.90;99.90
19085;DHT22;9675;51.538;6.728;2022-10-28T14:02:19;24.90;99.90
19085;DHT22;9675;51.538;6.728;2022-10-28T14:04:57;24.90;99.90
19085;DHT22;9675;51.538;6.728;2022-10-28T14:07:28;24.80;99.90
19085;DHT22;9675;51.538;6.728;2022-10-28T14:10:21;24.90;99.90
19085;DHT22;9675;51.538;6.728;2022-10-28T14:12:52;24.90;99.90
19085;DHT22;9675;51.538;6.728;2022-10-28T14:15:24;24.80;99.90
19085;DHT22;9675;51.538;6.728;2022-10-28T14:17:59;24.80;99.90
19085;DHT22;9675;51.538;6.728;2022-10-28T14:20:32;24.80;99.90
19085;DHT22;9675;51.538;6.728;2022-10-28T14:23:48;24.90;99.90
19085;DHT22;9675;51.538;6.728;2022-10-28T14:30:21;24.80;99.90
19085;DHT22;9675;51.538;6.728;2022-10-28T14:32:57;24.80;99.90
19085;DHT22;9675;51.538;6.728;2022-10-28T14:35:37;24.70;99.90
19085;DHT22;9675;51.538;6.728;2022-10-28T14:38:21;24.80;99.90
19085;DHT22;9675;51.538;6.728;2022-10-28T14:41:15;24.70;99.90
19085;DHT22;9675;51.538;6.728;2022-10-28T14:44:04;24.70;99.90
19085;DHT22;9675;51.538;6.728;2022-10-28T14:46:50;24.70;99.90
19085;DHT22;9675;51.538;6.728;2022-10-28T14:49:29;24.70;99.90
19085;DHT22;9675;51.538;6.728;2022-10-28T14:52:04;24.60;99.90
19085;DHT22;9675;51.538;6.728;2022-10-28T14:54:36;24.60;99.90
19085;DHT22;9675;51.538;6.728;2022-10-28T14:57:09;24.60;99.90
19085;DHT22;9675;51.538;6.728;2022-10-28T14:59:40;24.60;99.90
19085;DHT22;9675;51.538;6.728;2022-10-28T15:02:11;24.60;99.90
19085;DHT22;9675;51.538;6.728;2022-10-28T15:04:42;24.60;99.90
19085;DHT22;9675;51.538;6.728;2022-10-28T15:07:13;24.60;99.90
19085;DHT22;9675;51.538;6.728;2022-10-28T15:09:43;24.50;99.90
19085;DHT22;9675;51.538;6.728;2022-10-28T15:12:14;24.50;99.90
19085;DHT22;9675;51.538;6.728;2022-10-28T15:14:46;24.50;99.90
19085;DHT22;9675;51.538;6.728;2022-10-28T15:17:18;24.50;99.90
19085;DHT22;9675;51.538;6.728;2022-10-28T15:19:48;24.40;99.90
19085;DHT22;9675;51.538;6.728;2022-10-28T15:22:19;24.40;99.90
19085;DHT22;9675;51.538;6.728;2022-10-28T15:24:55;24.30;99.90
19085;DHT22;9675;51.538;6.728;2022-10-28T15:27:27;24.30;99.90
19085;DHT22;9675;51.538;6.728;2022-10-28T15:29:57;24.30;99.90
19085;DHT22;9675;51.538;6.728;2022-10-28T15:32:27;24.30;99.90
19085;DHT22;9675;51.538;6.728;2022-10-28T15:34:56;24.20;99.90
19085;DHT22;9675;51.538;6.728;2022-10-28T15:37:25;24.20;99.90
19085;DHT22;9675;51.538;6.728;2022-10-28T15:40:10;24.20;99.90
19085;DHT22;9675;51.538;6.728;2022-10-28T15:42:50;24.10;99.90
19085;DHT22;9675;51.538;6.728;2022-10-28T15:45:25;24.10;99.90
19085;DHT22;9675;51.538;6.728;2022-10-28T15:47:54;24.10;99.90
19085;DHT22;9675;51.538;6.728;2022-10-28T15:53:20;24.00;99.90
19085;DHT22;9675;51.538;6.728;2022-10-28T15:56:16;24.00;99.90
19085;DHT22;9675;51.538;6.728;2022-10-28T15:58:46;23.90;99.90
19085;DHT22;9675;51.538;6.728;2022-10-28T16:01:35;23.90;99.90
19085;DHT22;9675;51.538;6.728;2022-10-28T16:04:04;23.90;99.90
19085;DHT22;9675;51.538;6.728;2022-10-28T16:06:33;23.90;99.90
19085;DHT22;9675;51.538;6.728;2022-10-28T16:09:14;23.90;99.90
19085;DHT22;9675;51.538;6.728;2022-10-28T16:11:46;23.80;99.90
19085;DHT22;9675;51.538;6.728;2022-10-28T16:14:36;23.80;99.90
19085;DHT22;9675;51.538;6.728;2022-10-28T16:17:12;23.80;99.90
19085;DHT22;9675;51.538;6.728;2022-10-28T16:19:47;23.80;99.90
19085;DHT22;9675;51.538;6.728;2022-10-28T16:22:17;23.80;99.90
19085;DHT22;9675;51.538;6.728;2022-10-28T16:24:45;23.70;99.90
19085;DHT22;9675;51.538;6.728;2022-10-28T16:27:17;23.70;99.90
19085;DHT22;9675;51.538;6.728;2022-10-28T16:29:46;23.70;99.90
19085;DHT22;9675;51.538;6.728;2022-10-28T16:32:17;23.70;99.90
19085;DHT22;9675;51.538;6.728;2022-10-28T16:34:48;23.60;99.90
19085;DHT22;9675;51.538;6.728;2022-10-28T16:37:24;23.60;99.90
19085;DHT22;9675;51.538;6.728;2022-10-28T16:39:53;23.50;99.90
19085;DHT22;9675;51.538;6.728;2022-10-28T16:42:23;23.50;99.90
19085;DHT22;9675;51.538;6.728;2022-10-28T16:44:51;23.50;99.90
19085;DHT22;9675;51.538;6.728;2022-10-28T16:47:21;23.50;99.90
19085;DHT22;9675;51.538;6.728;2022-10-28T16:49:50;23.40;99.90
19085;DHT22;9675;51.538;6.728;2022-10-28T16:52:18;23.40;99.90